Time;durP1;ratioP1;P1;durP2;ratioP2;P2;SDS_P1;SDS_P2;PMS_P1;PMS_P2;Temp;Humidity;BMP_temperature;BMP_pressure;BME280_temperature;BME280_humidity;BME280_pressure;Samples;Min_cycle;Max_cycle;Signal;HPM_P1;HPM_P2
2022/08/24 00:00:28;;;;;;;5.80;3.88;;;22.40;99.90;;;;;;7336349;19;111215;-73
2022/08/24 00:02:55;;;;;;;5.00;4.07;;;22.30;99.90;;;;;;7335828;19;110402;-73
2022/08/24 00:05:23;;;;;;;4.00;3.50;;;22.10;99.90;;;;;;7340303;19;110154;-73
2022/08/24 00:07:50;;;;;;;6.50;3.92;;;22.10;99.90;;;;;;7343420;19;111164;-73
2022/08/24 00:10:21;;;;;;;4.22;3.60;;;22.10;99.90;;;;;;7342132;19;109600;-74
2022/08/24 00:12:49;;;;;;;6.10;3.60;;;22.10;99.90;;;;;;7343455;19;110852;-73
2022/08/24 00:15:17;;;;;;;4.75;3.25;;;22.10;99.90;;;;;;7347741;19;110360;-73
2022/08/24 00:17:44;;;;;;;4.18;3.78;;;22.10;99.90;;;;;;7342052;19;110750;-74
2022/08/24 00:20:12;;;;;;;5.28;4.35;;;22.10;99.90;;;;;;7342870;19;111301;-73
2022/08/24 00:22:40;;;;;;;4.82;4.30;;;22.00;99.90;;;;;;7341638;19;109771;-73
2022/08/24 00:25:10;;;;;;;5.05;3.70;;;21.80;99.90;;;;;;7341978;19;110183;-73
2022/08/24 00:27:38;;;;;;;6.47;3.50;;;21.80;99.90;;;;;;7340143;19;110005;-74
2022/08/24 00:30:08;;;;;;;5.85;3.95;;;21.80;99.90;;;;;;7341545;19;109313;-73
2022/08/24 00:32:36;;;;;;;6.13;3.83;;;21.70;99.90;;;;;;7340341;19;111055;-73
2022/08/24 00:35:08;;;;;;;7.03;3.47;;;21.70;99.90;;;;;;7342377;19;111235;-73
2022/08/24 00:37:35;;;;;;;6.25;4.15;;;21.70;99.90;;;;;;7348471;19;109856;-73
2022/08/24 00:40:10;;;;;;;7.20;4.53;;;21.70;99.90;;;;;;7339008;19;110468;-73
2022/08/24 00:42:38;;;;;;;6.22;4.20;;;21.60;99.90;;;;;;7340920;19;110208;-73
2022/08/24 00:45:08;;;;;;;4.85;3.85;;;21.50;99.90;;;;;;7339860;19;110403;-73
2022/08/24 00:47:46;;;;;;;6.28;4.00;;;21.50;99.90;;;;;;7342668;19;111197;-74
2022/08/24 00:50:22;;;;;;;6.30;4.25;;;21.50;99.90;;;;;;7341197;19;110202;-74
2022/08/24 00:52:55;;;;;;;5.13;4.25;;;21.50;99.90;;;;;;7341923;19;110056;-73
2022/08/24 00:55:32;;;;;;;5.90;4.65;;;21.40;99.90;;;;;;7340964;19;111348;-73
2022/08/24 00:58:06;;;;;;;5.07;4.05;;;21.20;99.90;;;;;;7334846;19;109698;-73
2022/08/24 01:00:44;;;;;;;11.02;3.75;;;21.20;99.90;;;;;;7346148;19;109582;-74
2022/08/24 01:03:14;;;;;;;6.03;3.70;;;21.20;99.90;;;;;;7339474;19;110558;-73
2022/08/24 01:05:42;;;;;;;5.97;4.25;;;21.20;99.90;;;;;;7337803;19;111200;-73
2022/08/24 01:08:12;;;;;;;6.20;4.10;;;21.20;99.90;;;;;;7338609;19;111134;-73
2022/08/24 01:10:43;;;;;;;7.50;3.70;;;21.20;99.90;;;;;;7337225;19;109780;-73
2022/08/24 01:13:12;;;;;;;5.88;4.03;;;21.10;99.90;;;;;;7338078;19;109860;-73
2022/08/24 01:15:44;;;;;;;5.10;3.70;;;21.00;99.90;;;;;;7339675;19;112188;-73
2022/08/24 01:21:17;;;;;;;8.32;3.88;;;21.00;99.90;;;;;;7337943;19;110895;-73
2022/08/24 01:23:56;;;;;;;8.85;4.50;;;21.00;99.90;;;;;;7344200;19;111474;-73
2022/08/24 01:26:41;;;;;;;5.88;3.75;;;21.10;99.90;;;;;;7340974;19;110450;-73
2022/08/24 01:29:24;;;;;;;5.35;3.90;;;21.10;99.90;;;;;;7339057;19;111139;-73
2022/08/24 01:31:52;;;;;;;5.03;3.58;;;21.10;99.90;;;;;;7341316;19;109444;-73
2022/08/24 01:34:20;;;;;;;5.60;3.65;;;21.10;99.90;;;;;;7340950;19;110477;-73
2022/08/24 01:36:50;;;;;;;4.28;3.75;;;21.10;99.90;;;;;;7338407;19;110767;-73
2022/08/24 01:39:20;;;;;;;5.80;3.75;;;21.10;99.90;;;;;;7337318;19;109982;-74
2022/08/24 01:41:47;;;;;;;5.63;4.35;;;21.00;99.90;;;;;;7339425;19;110020;-73
2022/08/24 01:44:15;;;;;;;6.47;4.32;;;21.00;99.90;;;;;;7339232;19;110137;-73
2022/08/24 01:46:47;;;;;;;5.25;4.45;;;21.00;99.90;;;;;;7346160;19;110167;-74
2022/08/24 01:49:15;;;;;;;7.22;4.30;;;21.00;99.90;;;;;;7337322;19;111134;-73
2022/08/24 01:51:44;;;;;;;5.13;4.63;;;21.00;99.90;;;;;;7336588;19;110127;-73
2022/08/24 01:54:14;;;;;;;5.68;4.18;;;21.00;99.90;;;;;;7335739;19;110499;-73
2022/08/24 01:56:41;;;;;;;5.43;4.43;;;21.00;99.90;;;;;;7338653;19;111364;-74
2022/08/24 01:59:08;;;;;;;5.53;4.30;;;20.90;99.90;;;;;;7338633;19;109509;-74
2022/08/24 02:01:39;;;;;;;7.60;4.78;;;20.90;99.90;;;;;;7339325;19;109930;-73
2022/08/24 02:04:08;;;;;;;8.20;4.60;;;20.90;99.90;;;;;;7333758;19;110177;-73
2022/08/24 02:06:36;;;;;;;10.32;5.40;;;20.80;99.90;;;;;;7344458;19;109901;-74
2022/08/24 02:09:04;;;;;;;9.18;4.80;;;20.70;99.90;;;;;;7338048;19;114818;-73
2022/08/24 02:11:32;;;;;;;8.15;4.32;;;20.60;99.90;;;;;;7338713;19;109823;-73
2022/08/24 02:14:00;;;;;;;5.55;4.50;;;20.60;99.90;;;;;;7337598;19;110026;-73
2022/08/24 02:16:27;;;;;;;5.57;4.55;;;20.60;99.90;;;;;;7337076;19;110407;-73
2022/08/24 02:18:55;;;;;;;6.38;4.43;;;20.60;99.90;;;;;;7338996;19;109448;-73
2022/08/24 02:21:22;;;;;;;8.93;4.43;;;20.60;99.90;;;;;;7338777;19;111245;-73
2022/08/24 02:23:50;;;;;;;5.85;4.65;;;20.60;99.90;;;;;;7337517;19;110194;-73
2022/08/24 02:26:17;;;;;;;6.47;4.40;;;20.60;99.90;;;;;;7335951;19;109359;-73
2022/08/24 02:28:44;;;;;;;6.20;4.10;;;20.60;99.90;;;;;;7342220;19;111905;-73
2022/08/24 02:31:14;;;;;;;9.77;4.90;;;20.50;99.90;;;;;;7337243;19;110155;-73
2022/08/24 02:33:41;;;;;;;8.25;4.72;;;20.40;99.90;;;;;;7336780;19;110493;-73
2022/08/24 02:36:11;;;;;;;7.28;5.15;;;20.30;99.90;;;;;;7338972;19;110129;-73
2022/08/24 02:38:53;;;;;;;9.00;5.40;;;20.30;99.90;;;;;;7336118;19;110227;-73
2022/08/24 02:41:23;;;;;;;5.10;4.60;;;20.40;99.90;;;;;;7336913;19;109590;-74
2022/08/24 02:43:51;;;;;;;6.70;4.40;;;20.40;99.90;;;;;;7337372;19;110230;-74
2022/08/24 02:46:21;;;;;;;6.25;5.00;;;20.30;99.90;;;;;;7335533;19;109390;-73
2022/08/24 02:48:49;;;;;;;10.40;4.50;;;20.20;99.90;;;;;;7338327;19;110676;-73
2022/08/24 02:51:37;;;;;;;5.60;5.00;;;20.10;99.90;;;;;;7342308;19;113502;-73
2022/08/24 02:54:12;;;;;;;5.45;4.85;;;20.10;99.90;;;;;;7337578;19;109917;-73
2022/08/24 02:56:39;;;;;;;5.47;4.85;;;20.10;99.90;;;;;;7336710;19;114638;-73
2022/08/24 02:59:06;;;;;;;5.63;4.88;;;20.20;99.90;;;;;;7337288;19;109379;-73
2022/08/24 03:01:33;;;;;;;5.20;4.70;;;20.20;99.90;;;;;;7336077;19;109752;-75
2022/08/24 03:04:01;;;;;;;6.35;5.57;;;20.20;99.90;;;;;;7331872;19;113689;-73
2022/08/24 03:06:28;;;;;;;5.43;4.93;;;20.20;99.90;;;;;;7329953;19;109519;-73
2022/08/24 03:08:55;;;;;;;6.85;5.13;;;20.10;99.90;;;;;;7336228;19;109426;-74
2022/08/24 03:11:24;;;;;;;7.07;5.38;;;20.10;99.90;;;;;;7335067;19;110612;-73
2022/08/24 03:14:00;;;;;;;6.93;4.97;;;20.00;99.90;;;;;;7342718;19;109804;-73
2022/08/24 03:16:28;;;;;;;6.80;5.70;;;19.90;99.90;;;;;;7336924;19;111056;-73
2022/08/24 03:18:55;;;;;;;5.80;5.30;;;19.90;99.90;;;;;;7337337;19;109272;-74
2022/08/24 03:21:23;;;;;;;8.60;5.57;;;19.90;99.90;;;;;;7338652;19;110452;-73
2022/08/24 03:23:50;;;;;;;8.82;5.25;;;19.80;99.90;;;;;;7336124;19;111232;-73
2022/08/24 03:26:17;;;;;;;16.33;5.18;;;19.80;99.90;;;;;;7338316;19;109629;-74
2022/08/24 03:28:44;;;;;;;8.52;6.15;;;19.80;99.90;;;;;;7337182;19;110342;-73
2022/08/24 03:31:12;;;;;;;8.23;5.28;;;19.70;99.90;;;;;;7336186;19;114329;-73
2022/08/24 03:33:39;;;;;;;8.35;5.22;;;19.70;99.90;;;;;;7337037;19;111609;-73
2022/08/24 03:36:06;;;;;;;7.43;5.65;;;19.60;99.90;;;;;;7339598;19;110893;-73
2022/08/24 03:38:40;;;;;;;6.15;5.55;;;19.60;99.90;;;;;;7335738;19;109989;-73
2022/08/24 03:41:07;;;;;;;6.18;5.13;;;19.70;99.90;;;;;;7341052;19;111316;-73
2022/08/24 03:43:45;;;;;;;6.53;5.47;;;19.70;99.90;;;;;;7342415;19;111173;-72
2022/08/24 03:46:19;;;;;;;7.05;5.15;;;19.80;99.90;;;;;;7341861;19;109171;-74
2022/08/24 03:48:47;;;;;;;5.82;5.28;;;19.80;99.90;;;;;;7344696;19;109871;-73
2022/08/24 03:51:18;;;;;;;11.07;5.38;;;19.80;99.90;;;;;;7340039;19;110116;-73
2022/08/24 03:53:45;;;;;;;5.47;4.60;;;19.80;99.90;;;;;;7342742;19;109366;-73
2022/08/24 03:56:12;;;;;;;6.72;4.78;;;19.80;99.90;;;;;;7348880;19;110446;-73
2022/08/24 03:58:42;;;;;;;11.85;5.35;;;19.60;99.90;;;;;;7343790;19;109615;-73
2022/08/24 04:01:11;;;;;;;8.98;5.82;;;19.50;99.90;;;;;;7342868;19;109730;-73
2022/08/24 04:03:40;;;;;;;10.98;5.20;;;19.40;99.90;;;;;;7344437;19;111220;-74
2022/08/24 04:06:09;;;;;;;7.25;4.95;;;19.40;99.90;;;;;;7340586;19;109359;-73
2022/08/24 04:08:38;;;;;;;8.90;5.57;;;19.50;99.90;;;;;;7343022;19;111892;-73
2022/08/24 04:11:13;;;;;;;8.43;4.82;;;19.50;99.90;;;;;;7341894;19;111101;-73
2022/08/24 04:13:40;;;;;;;8.32;5.55;;;19.60;99.90;;;;;;7342797;19;109511;-73
2022/08/24 04:16:11;;;;;;;11.30;5.72;;;19.60;99.90;;;;;;7343757;19;110493;-73
2022/08/24 04:18:39;;;;;;;9.35;5.40;;;19.50;99.90;;;;;;7349639;19;109936;-73
2022/08/24 04:21:20;;;;;;;11.63;5.35;;;19.50;99.90;;;;;;7341686;19;109393;-74
2022/08/24 04:23:48;;;;;;;7.88;5.35;;;19.50;99.90;;;;;;7341980;19;111544;-74
2022/08/24 04:26:16;;;;;;;8.27;5.47;;;19.50;99.90;;;;;;7340217;19;109830;-74
2022/08/24 04:29:06;;;;;;;8.45;5.78;;;19.40;99.90;;;;;;7341853;19;112941;-73
2022/08/24 04:31:35;;;;;;;6.30;5.70;;;19.40;99.90;;;;;;7342229;19;110101;-74
2022/08/24 04:34:03;;;;;;;16.85;6.25;;;19.40;99.90;;;;;;7342976;19;109925;-73
2022/08/24 04:36:31;;;;;;;12.13;6.05;;;19.40;99.90;;;;;;7341555;19;110818;-73
2022/08/24 04:38:59;;;;;;;10.70;5.85;;;19.40;99.90;;;;;;7342140;19;111097;-75
2022/08/24 04:41:27;;;;;;;11.20;6.30;;;19.40;99.90;;;;;;7347236;19;110741;-74
2022/08/24 04:43:58;;;;;;;13.82;6.72;;;19.30;99.90;;;;;;7343108;19;110554;-74
2022/08/24 04:46:26;;;;;;;11.00;6.28;;;19.30;99.90;;;;;;7339038;19;109952;-74
2022/08/24 04:48:53;;;;;;;10.95;6.72;;;19.30;99.90;;;;;;7341675;19;109573;-74
2022/08/24 04:51:21;;;;;;;8.38;6.10;;;19.20;99.90;;;;;;7338726;19;110348;-74
2022/08/24 04:53:49;;;;;;;7.20;5.43;;;19.20;99.90;;;;;;7342248;19;109833;-66
2022/08/24 04:56:22;;;;;;;8.27;5.70;;;19.20;99.90;;;;;;7340518;19;110281;-67
2022/08/24 04:58:51;;;;;;;9.20;5.78;;;19.30;99.90;;;;;;7341675;19;111078;-66
2022/08/24 05:01:25;;;;;;;7.07;6.32;;;19.30;99.90;;;;;;7342291;19;110032;-67
2022/08/24 05:03:53;;;;;;;10.98;7.10;;;19.30;99.90;;;;;;7347175;19;109388;-67
2022/08/24 05:06:23;;;;;;;9.80;6.10;;;19.40;99.90;;;;;;7340114;19;110802;-67
2022/08/24 05:08:50;;;;;;;12.68;6.93;;;19.40;99.90;;;;;;7341368;19;109357;-67
2022/08/24 05:11:18;;;;;;;11.52;6.38;;;19.40;99.90;;;;;;7339514;19;110460;-66
2022/08/24 05:13:46;;;;;;;14.35;7.32;;;19.50;99.90;;;;;;7342117;19;109361;-70
2022/08/24 05:16:16;;;;;;;10.75;6.80;;;19.50;99.90;;;;;;7341327;19;109822;-66
2022/08/24 05:18:44;;;;;;;8.90;7.00;;;19.50;99.90;;;;;;7341591;19;112030;-67
2022/08/24 05:21:17;;;;;;;12.77;7.10;;;19.50;99.90;;;;;;7341854;19;110730;-67
2022/08/24 05:23:45;;;;;;;10.77;6.78;;;19.50;99.90;;;;;;7340158;19;110410;-67
2022/08/24 05:26:12;;;;;;;11.85;5.80;;;19.40;99.90;;;;;;7344788;19;111198;-67
2022/08/24 05:28:39;;;;;;;7.45;5.07;;;19.40;99.90;;;;;;7340882;19;112551;-68
2022/08/24 05:31:15;;;;;;;7.13;5.03;;;19.40;99.90;;;;;;7340571;19;111370;-66
2022/08/24 05:33:43;;;;;;;9.65;5.57;;;19.50;99.90;;;;;;7340621;19;110219;-66
2022/08/24 05:36:29;;;;;;;11.10;6.22;;;19.40;99.90;;;;;;7340768;19;109522;-66
2022/08/24 05:38:59;;;;;;;10.05;5.72;;;19.50;99.90;;;;;;7340983;19;110661;-66
2022/08/24 05:41:27;;;;;;;13.93;6.15;;;19.60;99.90;;;;;;7341435;19;110007;-67
2022/08/24 05:43:54;;;;;;;7.28;6.18;;;19.70;99.90;;;;;;7340705;19;110857;-67
2022/08/24 05:46:21;;;;;;;17.27;6.40;;;19.80;99.90;;;;;;7338804;19;111093;-67
2022/08/24 05:48:48;;;;;;;10.90;6.18;;;19.90;99.90;;;;;;7346580;19;109472;-67
2022/08/24 05:51:20;;;;;;;9.50;6.35;;;20.00;99.90;;;;;;7338514;19;110148;-66
2022/08/24 05:53:47;;;;;;;8.98;6.57;;;20.00;99.90;;;;;;7341170;19;109960;-66
2022/08/24 05:56:16;;;;;;;11.13;7.15;;;20.10;99.90;;;;;;7339901;19;109389;-67
2022/08/24 05:58:44;;;;;;;10.82;8.25;;;20.20;99.90;;;;;;7338545;19;110611;-67
2022/08/24 06:01:17;;;;;;;11.15;7.78;;;20.30;99.90;;;;;;7338331;19;109518;-67
2022/08/24 06:03:44;;;;;;;9.10;7.43;;;20.40;99.90;;;;;;7338662;19;109576;-67
2022/08/24 06:06:12;;;;;;;13.73;7.90;;;20.50;99.90;;;;;;7339108;19;112872;-67
2022/08/24 06:08:41;;;;;;;14.45;8.52;;;20.60;99.90;;;;;;7344945;19;109614;-67
2022/08/24 06:11:09;;;;;;;11.13;9.00;;;20.70;99.90;;;;;;7337053;19;110386;-67
2022/08/24 06:13:37;;;;;;;15.65;9.98;;;20.80;99.90;;;;;;7339293;19;109528;-67
2022/08/24 06:16:11;;;;;;;11.93;9.77;;;20.90;99.90;;;;;;7336148;19;111491;-67
2022/08/24 06:18:54;;;;;;;11.15;9.80;;;21.00;99.90;;;;;;7340804;19;110636;-67
2022/08/24 06:21:24;;;;;;;17.13;13.57;;;21.10;99.90;;;;;;7340369;19;110161;-68
2022/08/24 06:23:55;;;;;;;21.85;11.88;;;21.30;99.90;;;;;;7337404;19;110921;-66
2022/08/24 06:29:08;;;;;;;21.63;15.05;;;21.50;99.90;;;;;;7336010;19;110679;-67
2022/08/24 06:31:42;;;;;;;18.77;14.82;;;21.60;99.90;;;;;;7339195;19;110704;-66
2022/08/24 06:34:13;;;;;;;23.73;16.77;;;21.70;99.90;;;;;;7333808;19;110868;-66
2022/08/24 06:36:40;;;;;;;23.27;15.68;;;21.80;99.90;;;;;;7334144;19;110665;-66
2022/08/24 06:39:09;;;;;;;21.50;15.00;;;21.90;99.90;;;;;;7335158;19;110110;-67
2022/08/24 06:41:37;;;;;;;23.45;15.27;;;22.10;99.90;;;;;;7336800;19;110649;-67
2022/08/24 06:44:05;;;;;;;21.95;16.60;;;22.20;99.90;;;;;;7334662;19;110792;-67
2022/08/24 06:46:33;;;;;;;22.00;16.88;;;22.30;99.90;;;;;;7334584;19;110759;-66
2022/08/24 06:49:00;;;;;;;27.13;18.30;;;22.40;99.90;;;;;;7335962;19;110905;-66
2022/08/24 06:51:27;;;;;;;25.00;19.55;;;22.50;99.90;;;;;;7336219;19;111018;-67
2022/08/24 06:53:54;;;;;;;29.92;19.20;;;22.70;99.90;;;;;;7339587;19;110138;-66
2022/08/24 06:56:22;;;;;;;35.92;21.42;;;22.80;99.90;;;;;;7332185;19;110781;-66
2022/08/24 06:58:49;;;;;;;30.38;19.30;;;23.00;99.90;;;;;;7336353;19;110201;-66
2022/08/24 07:01:20;;;;;;;32.80;21.15;;;23.10;99.90;;;;;;7335936;19;111095;-67
2022/08/24 07:03:47;;;;;;;28.17;19.55;;;23.30;99.90;;;;;;7333457;19;114099;-66
2022/08/24 07:06:14;;;;;;;32.30;20.05;;;23.40;99.90;;;;;;7334190;19;110879;-66
2022/08/24 07:08:42;;;;;;;33.22;20.77;;;23.60;99.90;;;;;;7334328;19;111504;-66
2022/08/24 07:11:13;;;;;;;37.78;21.10;;;23.70;99.90;;;;;;7334788;19;112273;-66
2022/08/24 07:13:40;;;;;;;37.80;22.67;;;23.70;99.90;;;;;;7334273;19;111598;-66
2022/08/24 07:16:08;;;;;;;36.20;22.17;;;23.90;99.90;;;;;;7340170;19;110838;-66
2022/08/24 07:18:36;;;;;;;34.22;20.95;;;23.90;99.90;;;;;;7335511;19;111517;-66
2022/08/24 07:21:07;;;;;;;40.00;21.92;;;24.00;99.90;;;;;;7335782;19;111637;-66
2022/08/24 07:23:34;;;;;;;42.28;21.90;;;24.10;99.90;;;;;;7336095;19;111784;-66
2022/08/24 07:26:12;;;;;;;39.10;22.10;;;24.20;99.90;;;;;;7333869;19;111740;-67
2022/08/24 07:29:03;;;;;;;42.22;22.50;;;24.30;99.90;;;;;;7335023;19;114178;-66
2022/08/24 07:31:32;;;;;;;35.50;22.10;;;24.50;99.90;;;;;;7335166;19;111044;-67
2022/08/24 07:34:02;;;;;;;42.15;23.27;;;24.60;99.90;;;;;;7335394;19;111251;-66
2022/08/24 07:36:30;;;;;;;37.28;22.20;;;24.60;99.90;;;;;;7334629;19;111059;-67
2022/08/24 07:38:57;;;;;;;33.33;18.63;;;24.70;99.90;;;;;;7337640;19;111635;-66
2022/08/24 07:41:25;;;;;;;35.80;21.25;;;24.80;99.90;;;;;;7335503;19;111368;-66
2022/08/24 07:44:14;;;;;;;35.08;22.63;;;24.90;99.90;;;;;;7334876;19;114163;-67
2022/08/24 07:46:42;;;;;;;35.47;20.95;;;25.00;99.90;;;;;;7333811;19;111725;-67
2022/08/24 07:49:10;;;;;;;32.65;22.60;;;25.10;99.90;;;;;;7334287;19;110379;-67
2022/08/24 07:51:58;;;;;;;42.47;22.77;;;25.10;99.90;;;;;;7334880;19;112828;-66
2022/08/24 07:54:27;;;;;;;31.05;20.10;;;25.30;99.90;;;;;;7334286;19;110198;-67
2022/08/24 07:56:55;;;;;;;31.08;22.40;;;25.40;99.90;;;;;;7334122;19;111342;-66
2022/08/24 07:59:22;;;;;;;34.45;21.45;;;25.60;99.90;;;;;;7332969;19;111887;-67
2022/08/24 08:01:49;;;;;;;28.45;19.17;;;25.70;99.90;;;;;;7337455;19;110089;-68
2022/08/24 08:04:23;;;;;;;30.67;19.67;;;25.80;99.90;;;;;;7334849;19;111822;-67
2022/08/24 08:06:50;;;;;;;29.25;17.55;;;25.90;99.90;;;;;;7333833;19;111197;-66
2022/08/24 08:09:18;;;;;;;21.25;16.08;;;25.90;99.90;;;;;;7331977;19;110963;-67
2022/08/24 08:11:45;;;;;;;22.73;16.40;;;26.00;99.90;;;;;;7333202;19;110757;-67
2022/08/24 08:14:13;;;;;;;20.70;15.43;;;26.00;99.90;;;;;;7333650;19;111215;-67
2022/08/24 08:16:40;;;;;;;22.15;15.32;;;26.00;99.90;;;;;;7334563;19;111411;-67
2022/08/24 08:19:07;;;;;;;26.65;15.70;;;26.10;99.90;;;;;;7334186;19;111999;-67
2022/08/24 08:24:31;;;;;;;23.02;15.27;;;26.20;99.90;;;;;;7334161;19;111748;-67
2022/08/24 08:26:59;;;;;;;18.42;14.10;;;26.40;99.90;;;;;;7337422;19;110266;-67
2022/08/24 08:29:26;;;;;;;20.85;14.80;;;26.50;99.90;;;;;;7340680;19;111872;-67
2022/08/24 08:31:53;;;;;;;28.05;15.25;;;26.60;99.90;;;;;;7341403;19;111639;-67
2022/08/24 08:34:20;;;;;;;27.10;14.13;;;26.60;99.90;;;;;;7340758;19;111179;-67
2022/08/24 08:36:47;;;;;;;34.60;14.18;;;26.60;99.90;;;;;;7340329;19;110621;-67
2022/08/24 08:39:16;;;;;;;13.30;11.70;;;26.60;99.90;;;;;;7340185;19;111895;-67
2022/08/24 08:42:28;;;;;;;14.68;10.70;;;26.60;99.90;;;;;;7340586;19;110204;-67
2022/08/24 08:44:55;;;;;;;32.88;11.88;;;26.60;99.90;;;;;;7343596;19;111615;-67
2022/08/24 08:47:56;;;;;;;17.65;10.90;;;26.60;99.90;;;;;;7339581;19;110143;-67
2022/08/24 08:50:30;;;;;;;10.27;9.13;;;26.70;99.90;;;;;;7340545;19;110426;-67
2022/08/24 08:53:24;;;;;;;9.10;7.93;;;26.70;99.90;;;;;;7344144;19;109488;-67
2022/08/24 08:56:11;;;;;;;18.65;8.63;;;26.70;99.90;;;;;;7341397;19;110135;-67
2022/08/24 08:59:01;;;;;;;11.80;9.75;;;26.60;99.90;;;;;;7342426;19;109660;-68
2022/08/24 09:01:35;;;;;;;39.08;11.15;;;26.60;99.90;;;;;;7341511;19;110475;-67
2022/08/24 09:04:13;;;;;;;34.42;9.75;;;26.60;99.90;;;;;;7341236;19;111084;-67
2022/08/24 09:07:08;;;;;;;24.17;9.70;;;26.70;99.90;;;;;;7341646;19;110589;-67
2022/08/24 09:09:38;;;;;;;15.68;8.70;;;26.70;99.90;;;;;;7345080;19;110603;-67
2022/08/24 09:12:24;;;;;;;15.23;7.57;;;26.80;99.90;;;;;;7342107;19;109496;-67
2022/08/24 09:15:02;;;;;;;24.00;8.90;;;26.90;99.90;;;;;;7342131;19;110381;-67
2022/08/24 09:17:48;;;;;;;17.42;9.10;;;27.00;99.90;;;;;;7342363;19;111197;-67
2022/08/24 09:20:57;;;;;;;9.27;8.38;;;27.10;99.90;;;;;;7342630;19;110044;-67
2022/08/24 09:24:00;;;;;;;10.90;7.28;;;27.10;99.90;;;;;;7340852;19;111290;-67
2022/08/24 09:26:35;;;;;;;13.98;7.47;;;27.30;99.90;;;;;;7341488;19;110237;-67
2022/08/24 09:29:15;;;;;;;6.57;5.97;;;27.30;99.90;;;;;;7341502;19;109663;-67
2022/08/24 09:31:59;;;;;;;6.82;5.95;;;27.50;99.90;;;;;;7341389;19;109551;-67
2022/08/24 09:34:50;;;;;;;7.13;5.40;;;27.50;99.90;;;;;;7346533;19;110030;-67
2022/08/24 09:37:43;;;;;;;9.23;6.10;;;27.50;99.90;;;;;;7338907;19;113137;-67
2022/08/24 09:40:38;;;;;;;20.13;6.95;;;27.50;99.90;;;;;;7338861;19;110412;-67
2022/08/24 09:43:25;;;;;;;12.82;6.25;;;27.50;99.90;;;;;;7340317;19;109679;-67
2022/08/24 09:46:16;;;;;;;8.95;6.60;;;27.60;99.90;;;;;;7341158;19;109555;-70
2022/08/24 09:49:25;;;;;;;11.25;7.18;;;27.60;99.90;;;;;;7340907;19;111329;-68
2022/08/24 09:52:09;;;;;;;11.07;5.25;;;27.60;99.90;;;;;;7339014;19;110116;-67
2022/08/24 09:55:03;;;;;;;11.48;5.60;;;27.60;99.90;;;;;;7340924;19;109728;-67
2022/08/24 09:58:08;;;;;;;6.97;4.55;;;27.60;99.90;;;;;;7338235;19;111417;-67
2022/08/24 10:00:45;;;;;;;6.40;5.28;;;27.70;99.90;;;;;;7345530;19;110287;-67
2022/08/24 10:03:30;;;;;;;12.75;6.65;;;27.70;99.90;;;;;;7340424;19;110090;-68
2022/08/24 10:06:09;;;;;;;18.65;7.43;;;27.70;99.90;;;;;;7340213;19;109533;-67
2022/08/24 10:09:14;;;;;;;13.40;6.45;;;27.70;99.90;;;;;;7338069;19;109861;-67
2022/08/24 10:12:29;;;;;;;11.88;6.22;;;27.80;99.90;;;;;;7340143;19;111068;-68
2022/08/24 10:15:27;;;;;;;7.63;6.65;;;27.90;99.50;;;;;;7339858;19;109200;-67
2022/08/24 10:17:57;;;;;;;8.82;5.82;;;27.90;99.40;;;;;;7340286;19;109890;-68
2022/08/24 10:20:46;;;;;;;12.02;5.90;;;27.90;99.70;;;;;;7339357;19;112217;-67
2022/08/24 10:23:40;;;;;;;8.13;5.40;;;27.90;99.50;;;;;;7339897;19;109771;-67
2022/08/24 10:26:26;;;;;;;10.30;6.40;;;28.00;99.60;;;;;;7345341;19;110613;-67
2022/08/24 10:29:29;;;;;;;10.23;5.85;;;28.10;99.80;;;;;;7337723;19;110573;-67
2022/08/24 10:32:18;;;;;;;9.07;4.75;;;28.20;99.00;;;;;;7338926;19;110318;-67
2022/08/24 10:34:59;;;;;;;7.90;5.28;;;28.20;99.40;;;;;;7339403;19;111212;-67
2022/08/24 10:39:39;;;;;;;10.80;4.78;;;28.30;99.20;;;;;;7340398;19;109525;-67
2022/08/24 10:41:06;;;;;;;11.85;5.00;;;28.30;98.70;;;;;;7336398;19;109497;-67
2022/08/24 10:44:09;;;;;;;9.50;5.20;;;28.30;99.00;;;;;;7338869;19;110335;-67
2022/08/24 10:47:00;;;;;;;7.15;4.25;;;28.40;98.80;;;;;;7339098;19;109167;-67
2022/08/24 10:49:48;;;;;;;10.02;4.78;;;28.40;98.70;;;;;;7343008;19;110397;-67
2022/08/24 10:52:35;;;;;;;8.57;4.70;;;28.50;98.50;;;;;;7339357;19;109751;-67
2022/08/24 10:55:23;;;;;;;6.05;3.00;;;28.60;98.50;;;;;;7340515;19;111257;-67
2022/08/24 10:58:12;;;;;;;7.25;3.67;;;28.80;98.50;;;;;;7338627;19;110290;-67
2022/08/24 11:00:39;;;;;;;10.57;4.57;;;29.00;98.20;;;;;;7339182;19;109383;-67
2022/08/24 11:03:20;;;;;;;5.30;3.20;;;29.20;98.40;;;;;;7339058;19;110550;-68
2022/08/24 11:05:56;;;;;;;4.25;3.08;;;29.30;97.80;;;;;;7337922;19;110129;-67
2022/08/24 11:08:29;;;;;;;4.53;2.50;;;29.50;97.00;;;;;;7337216;19;109533;-67
2022/08/24 11:11:12;;;;;;;6.93;2.47;;;29.50;96.20;;;;;;7338279;19;110562;-67
2022/08/24 11:14:05;;;;;;;3.67;2.10;;;29.60;96.20;;;;;;7343893;19;109684;-68
2022/08/24 11:16:42;;;;;;;5.75;2.00;;;29.70;96.00;;;;;;7337974;19;109520;-67
2022/08/24 11:19:30;;;;;;;10.63;2.08;;;29.90;95.30;;;;;;7337557;19;111509;-67
2022/08/24 11:22:00;;;;;;;5.22;1.90;;;30.00;95.30;;;;;;7338523;19;109858;-67
2022/08/24 11:24:38;;;;;;;3.38;1.77;;;30.30;95.50;;;;;;7339364;19;109808;-67
2022/08/24 11:27:18;;;;;;;4.07;1.90;;;30.50;94.70;;;;;;7337115;19;110111;-67
2022/08/24 11:29:51;;;;;;;4.10;1.50;;;30.60;94.40;;;;;;7338147;19;109425;-67
2022/08/24 11:32:31;;;;;;;3.67;1.20;;;30.70;93.30;;;;;;7335238;19;109850;-67
2022/08/24 11:35:23;;;;;;;12.30;1.63;;;30.70;92.80;;;;;;7337868;19;111423;-67
2022/08/24 11:38:22;;;;;;;4.28;1.38;;;30.80;93.40;;;;;;7341873;19;110932;-68
2022/08/24 11:41:05;;;;;;;6.00;1.20;;;30.80;93.00;;;;;;7334043;19;110275;-68
2022/08/24 11:44:00;;;;;;;2.90;1.13;;;31.10;93.20;;;;;;7336722;19;111616;-68
2022/08/24 11:46:42;;;;;;;4.28;1.25;;;31.30;92.30;;;;;;7337164;19;110364;-67
2022/08/24 11:49:28;;;;;;;16.90;1.42;;;31.30;92.10;;;;;;7334327;19;110317;-68
2022/08/24 11:52:05;;;;;;;9.00;1.20;;;31.50;93.00;;;;;;7336790;19;110240;-68
2022/08/24 11:54:54;;;;;;;2.40;1.20;;;31.80;92.80;;;;;;7336889;19;110443;-68
2022/08/24 11:57:52;;;;;;;4.03;1.10;;;31.80;91.60;;;;;;7336514;19;111274;-68
2022/08/24 12:00:23;;;;;;;4.32;1.40;;;31.90;91.00;;;;;;7339123;19;110458;-67
2022/08/24 12:02:57;;;;;;;6.53;1.25;;;31.90;91.60;;;;;;7346260;19;109802;-67
2022/08/24 12:05:42;;;;;;;5.57;1.35;;;32.00;91.10;;;;;;7343703;19;109795;-67
2022/08/24 12:08:27;;;;;;;4.65;1.20;;;32.00;90.40;;;;;;7343317;19;110472;-67
2022/08/24 12:11:00;;;;;;;6.53;1.45;;;32.10;89.00;;;;;;7343681;19;111162;-68
2022/08/24 12:13:51;;;;;;;3.17;1.30;;;31.90;88.80;;;;;;7342528;19;111708;-68
2022/08/24 12:17:01;;;;;;;5.70;1.52;;;32.00;89.30;;;;;;7343425;19;111538;-68
2022/08/24 12:19:32;;;;;;;5.95;1.17;;;32.00;88.00;;;;;;7342927;19;110797;-68
2022/08/24 12:22:05;;;;;;;3.88;1.38;;;32.20;88.60;;;;;;7344833;19;109328;-67
2022/08/24 12:24:47;;;;;;;4.38;1.05;;;32.40;88.10;;;;;;7342371;19;109462;-69
2022/08/24 12:27:25;;;;;;;3.90;1.30;;;32.70;88.90;;;;;;7344115;19;110272;-69
2022/08/24 12:30:11;;;;;;;2.75;1.10;;;33.00;84.50;;;;;;7340331;19;110427;-69
2022/08/24 12:32:44;;;;;;;2.58;1.38;;;33.10;86.70;;;;;;7334545;19;110231;-69
2022/08/24 12:35:34;;;;;;;3.35;1.48;;;33.30;86.30;;;;;;7342432;19;109907;-69
2022/08/24 12:38:18;;;;;;;3.58;1.17;;;33.50;85.20;;;;;;7341828;19;109227;-69
2022/08/24 12:41:16;;;;;;;3.13;1.27;;;33.60;83.70;;;;;;7339096;19;111989;-69
2022/08/24 12:43:48;;;;;;;3.80;1.10;;;33.70;82.40;;;;;;7339136;19;109435;-70
2022/08/24 12:46:19;;;;;;;2.78;1.20;;;33.90;77.60;;;;;;7343435;19;112595;-69
2022/08/24 12:48:55;;;;;;;5.90;1.40;;;33.90;77.60;;;;;;7339800;19;112450;-70
2022/08/24 12:51:56;;;;;;;5.43;1.30;;;34.00;75.20;;;;;;7345546;19;109915;-69
2022/08/24 12:54:33;;;;;;;4.03;1.20;;;34.10;76.90;;;;;;7340773;19;110527;-69
2022/08/24 12:57:38;;;;;;;2.38;1.77;;;34.40;78.40;;;;;;7340387;19;109412;-69
2022/08/24 13:00:27;;;;;;;;;;;34.80;77.60;;;;;;7338998;19;109596;-69
2022/08/24 13:03:02;;;;;;;2.67;1.38;;;35.10;76.60;;;;;;7342991;19;110134;-69
2022/08/24 13:05:44;;;;;;;5.25;1.40;;;35.40;75.30;;;;;;7340612;19;109470;-70
2022/08/24 13:08:18;;;;;;;5.00;1.50;;;35.20;72.40;;;;;;7338797;19;109729;-77
2022/08/24 13:10:58;;;;;;;5.20;1.40;;;35.20;75.20;;;;;;7340213;19;111270;-77
2022/08/24 13:13:45;;;;;;;4.97;1.27;;;35.40;74.40;;;;;;7344229;19;109491;-77
2022/08/24 13:16:53;;;;;;;7.55;1.50;;;35.60;73.70;;;;;;7340519;19;111788;-77
2022/08/24 13:19:27;;;;;;;9.57;1.97;;;35.80;72.80;;;;;;7338563;19;110958;-76